sensor_id;sensor_type;location;lat;lon;timestamp;P1;durP1;ratioP1;P2;durP2;ratioP2
21800;SDS011;11062;51.164;16.924;2023-04-25T00:00:06;285.10;;;91.03;;
21800;SDS011;11062;51.164;16.924;2023-04-25T00:02:33;269.70;;;89.47;;
21800;SDS011;11062;51.164;16.924;2023-04-25T00:05:00;264.90;;;89.55;;
21800;SDS011;11062;51.164;16.924;2023-04-25T00:07:30;270.95;;;88.75;;
21800;SDS011;11062;51.164;16.924;2023-04-25T00:09:58;278.60;;;90.47;;
21800;SDS011;11062;51.164;16.924;2023-04-25T00:12:24;271.05;;;90.50;;
21800;SDS011;11062;51.164;16.924;2023-04-25T00:14:53;270.65;;;89.60;;
21800;SDS011;11062;51.164;16.924;2023-04-25T00:17:23;276.08;;;92.22;;
21800;SDS011;11062;51.164;16.924;2023-04-25T00:19:52;283.83;;;91.80;;
21800;SDS011;11062;51.164;16.924;2023-04-25T00:22:18;274.75;;;90.50;;
21800;SDS011;11062;51.164;16.924;2023-04-25T00:24:47;274.70;;;90.55;;
21800;SDS011;11062;51.164;16.924;2023-04-25T00:27:13;267.95;;;90.15;;
21800;SDS011;11062;51.164;16.924;2023-04-25T00:29:40;265.67;;;88.00;;
21800;SDS011;11062;51.164;16.924;2023-04-25T00:32:06;275.00;;;90.82;;
21800;SDS011;11062;51.164;16.924;2023-04-25T00:34:36;266.92;;;87.97;;
21800;SDS011;11062;51.164;16.924;2023-04-25T00:37:02;270.88;;;90.50;;
21800;SDS011;11062;51.164;16.924;2023-04-25T00:39:28;266.45;;;87.50;;
21800;SDS011;11062;51.164;16.924;2023-04-25T00:41:59;286.33;;;89.95;;
21800;SDS011;11062;51.164;16.924;2023-04-25T00:44:27;265.70;;;87.78;;
21800;SDS011;11062;51.164;16.924;2023-04-25T00:46:54;270.55;;;89.38;;
21800;SDS011;11062;51.164;16.924;2023-04-25T00:49:20;276.92;;;89.05;;
21800;SDS011;11062;51.164;16.924;2023-04-25T00:51:46;263.48;;;86.38;;
21800;SDS011;11062;51.164;16.924;2023-04-25T00:54:13;283.98;;;90.45;;
21800;SDS011;11062;51.164;16.924;2023-04-25T00:56:42;267.40;;;88.15;;
21800;SDS011;11062;51.164;16.924;2023-04-25T00:59:10;274.80;;;90.05;;
21800;SDS011;11062;51.164;16.924;2023-04-25T01:01:39;269.55;;;88.22;;
21800;SDS011;11062;51.164;16.924;2023-04-25T01:04:07;264.27;;;87.22;;
21800;SDS011;11062;51.164;16.924;2023-04-25T01:06:33;276.60;;;89.55;;
21800;SDS011;11062;51.164;16.924;2023-04-25T01:09:00;266.42;;;89.85;;
21800;SDS011;11062;51.164;16.924;2023-04-25T01:11:30;267.45;;;89.55;;
21800;SDS011;11062;51.164;16.924;2023-04-25T01:13:56;268.58;;;88.10;;
21800;SDS011;11062;51.164;16.924;2023-04-25T01:16:27;277.08;;;89.38;;
21800;SDS011;11062;51.164;16.924;2023-04-25T01:18:53;263.88;;;88.10;;
21800;SDS011;11062;51.164;16.924;2023-04-25T01:21:20;267.38;;;87.70;;
21800;SDS011;11062;51.164;16.924;2023-04-25T01:23:48;262.20;;;89.30;;
21800;SDS011;11062;51.164;16.924;2023-04-25T01:26:15;270.25;;;89.05;;
21800;SDS011;11062;51.164;16.924;2023-04-25T01:28:46;283.52;;;90.50;;
21800;SDS011;11062;51.164;16.924;2023-04-25T01:31:13;267.08;;;87.30;;
21800;SDS011;11062;51.164;16.924;2023-04-25T01:33:40;262.67;;;87.00;;
21800;SDS011;11062;51.164;16.924;2023-04-25T01:36:07;267.20;;;89.05;;
21800;SDS011;11062;51.164;16.924;2023-04-25T01:38:33;265.08;;;87.15;;
21800;SDS011;11062;51.164;16.924;2023-04-25T01:41:02;263.77;;;87.82;;
21800;SDS011;11062;51.164;16.924;2023-04-25T01:43:28;279.08;;;90.72;;
21800;SDS011;11062;51.164;16.924;2023-04-25T01:45:54;264.65;;;87.88;;
21800;SDS011;11062;51.164;16.924;2023-04-25T01:48:22;263.23;;;86.63;;
21800;SDS011;11062;51.164;16.924;2023-04-25T01:50:50;264.00;;;87.90;;
21800;SDS011;11062;51.164;16.924;2023-04-25T01:53:16;264.40;;;87.15;;
21800;SDS011;11062;51.164;16.924;2023-04-25T01:55:44;265.58;;;88.50;;
21800;SDS011;11062;51.164;16.924;2023-04-25T01:58:10;271.77;;;88.78;;
21800;SDS011;11062;51.164;16.924;2023-04-25T02:00:38;263.73;;;88.20;;
21800;SDS011;11062;51.164;16.924;2023-04-25T02:03:05;277.00;;;89.57;;
21800;SDS011;11062;51.164;16.924;2023-04-25T02:05:36;269.83;;;88.43;;
21800;SDS011;11062;51.164;16.924;2023-04-25T02:08:04;268.48;;;88.72;;
21800;SDS011;11062;51.164;16.924;2023-04-25T02:10:31;265.17;;;88.97;;
21800;SDS011;11062;51.164;16.924;2023-04-25T02:12:59;261.13;;;86.45;;
21800;SDS011;11062;51.164;16.924;2023-04-25T02:15:26;272.83;;;89.28;;
21800;SDS011;11062;51.164;16.924;2023-04-25T02:17:57;271.00;;;94.03;;
21800;SDS011;11062;51.164;16.924;2023-04-25T02:20:27;253.03;;;86.57;;
21800;SDS011;11062;51.164;16.924;2023-04-25T02:22:55;260.30;;;87.50;;
21800;SDS011;11062;51.164;16.924;2023-04-25T02:25:22;268.00;;;87.95;;
21800;SDS011;11062;51.164;16.924;2023-04-25T02:27:48;264.33;;;87.38;;
21800;SDS011;11062;51.164;16.924;2023-04-25T02:30:16;276.52;;;89.13;;
21800;SDS011;11062;51.164;16.924;2023-04-25T02:32:42;266.20;;;88.82;;
21800;SDS011;11062;51.164;16.924;2023-04-25T02:35:08;269.30;;;89.85;;
21800;SDS011;11062;51.164;16.924;2023-04-25T02:37:35;278.42;;;90.70;;
21800;SDS011;11062;51.164;16.924;2023-04-25T02:40:04;268.42;;;88.55;;
21800;SDS011;11062;51.164;16.924;2023-04-25T02:42:32;276.60;;;89.53;;
21800;SDS011;11062;51.164;16.924;2023-04-25T02:45:01;267.35;;;88.25;;
21800;SDS011;11062;51.164;16.924;2023-04-25T02:47:36;265.02;;;89.25;;
21800;SDS011;11062;51.164;16.924;2023-04-25T02:50:02;267.13;;;88.28;;
21800;SDS011;11062;51.164;16.924;2023-04-25T02:52:31;272.58;;;89.38;;
21800;SDS011;11062;51.164;16.924;2023-04-25T02:54:57;276.00;;;88.45;;
21800;SDS011;11062;51.164;16.924;2023-04-25T02:57:23;269.95;;;88.82;;
21800;SDS011;11062;51.164;16.924;2023-04-25T02:59:49;270.88;;;90.35;;
21800;SDS011;11062;51.164;16.924;2023-04-25T03:02:15;273.30;;;90.72;;
21800;SDS011;11062;51.164;16.924;2023-04-25T03:04:41;280.98;;;90.65;;
21800;SDS011;11062;51.164;16.924;2023-04-25T03:07:07;269.80;;;89.75;;
21800;SDS011;11062;51.164;16.924;2023-04-25T03:09:36;265.45;;;89.50;;
21800;SDS011;11062;51.164;16.924;2023-04-25T03:12:02;286.30;;;91.95;;
21800;SDS011;11062;51.164;16.924;2023-04-25T03:14:28;271.33;;;89.93;;
21800;SDS011;11062;51.164;16.924;2023-04-25T03:16:56;282.73;;;90.40;;
21800;SDS011;11062;51.164;16.924;2023-04-25T03:19:22;273.67;;;89.70;;
21800;SDS011;11062;51.164;16.924;2023-04-25T03:21:51;270.42;;;89.35;;
21800;SDS011;11062;51.164;16.924;2023-04-25T03:24:18;269.90;;;88.43;;
21800;SDS011;11062;51.164;16.924;2023-04-25T03:26:47;271.45;;;88.18;;
21800;SDS011;11062;51.164;16.924;2023-04-25T03:29:13;268.52;;;89.00;;
21800;SDS011;11062;51.164;16.924;2023-04-25T03:31:41;265.73;;;88.03;;
21800;SDS011;11062;51.164;16.924;2023-04-25T03:34:10;268.92;;;88.85;;
21800;SDS011;11062;51.164;16.924;2023-04-25T03:36:36;264.73;;;88.35;;
21800;SDS011;11062;51.164;16.924;2023-04-25T03:39:02;271.17;;;88.78;;
21800;SDS011;11062;51.164;16.924;2023-04-25T03:41:40;262.95;;;87.07;;
21800;SDS011;11062;51.164;16.924;2023-04-25T03:44:09;254.80;;;85.82;;
21800;SDS011;11062;51.164;16.924;2023-04-25T03:46:35;280.05;;;90.30;;
21800;SDS011;11062;51.164;16.924;2023-04-25T03:49:01;263.55;;;87.38;;
21800;SDS011;11062;51.164;16.924;2023-04-25T03:51:27;271.95;;;89.00;;
21800;SDS011;11062;51.164;16.924;2023-04-25T03:53:56;276.20;;;89.22;;
21800;SDS011;11062;51.164;16.924;2023-04-25T03:56:24;262.30;;;88.05;;
21800;SDS011;11062;51.164;16.924;2023-04-25T03:58:50;279.45;;;89.07;;
21800;SDS011;11062;51.164;16.924;2023-04-25T04:01:17;267.27;;;89.53;;
21800;SDS011;11062;51.164;16.924;2023-04-25T04:03:42;270.20;;;89.38;;
21800;SDS011;11062;51.164;16.924;2023-04-25T04:06:08;272.08;;;90.00;;
21800;SDS011;11062;51.164;16.924;2023-04-25T04:08:35;273.33;;;90.55;;
21800;SDS011;11062;51.164;16.924;2023-04-25T04:11:04;276.58;;;91.75;;
21800;SDS011;11062;51.164;16.924;2023-04-25T04:13:33;271.85;;;88.10;;
21800;SDS011;11062;51.164;16.924;2023-04-25T04:15:59;272.08;;;90.40;;
21800;SDS011;11062;51.164;16.924;2023-04-25T04:18:25;271.05;;;91.70;;
21800;SDS011;11062;51.164;16.924;2023-04-25T04:20:51;274.35;;;89.43;;
21800;SDS011;11062;51.164;16.924;2023-04-25T04:23:23;266.35;;;86.95;;
21800;SDS011;11062;51.164;16.924;2023-04-25T04:25:49;271.30;;;90.68;;
21800;SDS011;11062;51.164;16.924;2023-04-25T04:28:17;273.63;;;89.70;;
21800;SDS011;11062;51.164;16.924;2023-04-25T04:30:43;267.73;;;90.35;;
21800;SDS011;11062;51.164;16.924;2023-04-25T04:33:11;288.13;;;91.13;;
21800;SDS011;11062;51.164;16.924;2023-04-25T04:35:38;269.08;;;88.93;;
21800;SDS011;11062;51.164;16.924;2023-04-25T04:38:03;266.90;;;88.95;;
21800;SDS011;11062;51.164;16.924;2023-04-25T04:40:29;264.40;;;88.63;;
21800;SDS011;11062;51.164;16.924;2023-04-25T04:42:58;273.90;;;91.35;;
21800;SDS011;11062;51.164;16.924;2023-04-25T04:45:24;283.25;;;92.47;;
21800;SDS011;11062;51.164;16.924;2023-04-25T04:47:50;276.00;;;89.55;;
21800;SDS011;11062;51.164;16.924;2023-04-25T04:50:16;279.63;;;96.18;;
21800;SDS011;11062;51.164;16.924;2023-04-25T04:52:43;266.45;;;91.40;;
21800;SDS011;11062;51.164;16.924;2023-04-25T04:55:09;275.45;;;92.85;;
21800;SDS011;11062;51.164;16.924;2023-04-25T04:57:35;282.77;;;93.18;;
21800;SDS011;11062;51.164;16.924;2023-04-25T05:00:04;270.42;;;92.47;;
21800;SDS011;11062;51.164;16.924;2023-04-25T05:02:36;278.77;;;91.65;;
21800;SDS011;11062;51.164;16.924;2023-04-25T05:05:03;279.50;;;93.50;;
21800;SDS011;11062;51.164;16.924;2023-04-25T05:07:33;267.92;;;91.78;;
21800;SDS011;11062;51.164;16.924;2023-04-25T05:10:02;283.05;;;92.32;;
21800;SDS011;11062;51.164;16.924;2023-04-25T05:12:36;277.52;;;92.40;;
21800;SDS011;11062;51.164;16.924;2023-04-25T05:15:05;275.55;;;91.78;;
21800;SDS011;11062;51.164;16.924;2023-04-25T05:17:31;269.05;;;90.53;;
21800;SDS011;11062;51.164;16.924;2023-04-25T05:19:58;298.80;;;94.80;;
21800;SDS011;11062;51.164;16.924;2023-04-25T05:22:26;275.90;;;93.15;;
21800;SDS011;11062;51.164;16.924;2023-04-25T05:24:52;272.38;;;91.63;;
21800;SDS011;11062;51.164;16.924;2023-04-25T05:27:18;263.38;;;90.50;;
21800;SDS011;11062;51.164;16.924;2023-04-25T05:29:44;267.55;;;92.32;;
21800;SDS011;11062;51.164;16.924;2023-04-25T05:32:10;286.38;;;93.65;;
21800;SDS011;11062;51.164;16.924;2023-04-25T05:34:36;275.70;;;91.65;;
21800;SDS011;11062;51.164;16.924;2023-04-25T05:37:02;275.60;;;92.40;;
21800;SDS011;11062;51.164;16.924;2023-04-25T05:39:31;290.02;;;95.43;;
21800;SDS011;11062;51.164;16.924;2023-04-25T05:42:00;266.88;;;90.50;;
21800;SDS011;11062;51.164;16.924;2023-04-25T05:44:27;270.73;;;95.70;;
21800;SDS011;11062;51.164;16.924;2023-04-25T05:46:53;264.60;;;90.55;;
21800;SDS011;11062;51.164;16.924;2023-04-25T05:49:22;275.17;;;92.45;;
21800;SDS011;11062;51.164;16.924;2023-04-25T05:51:51;269.35;;;92.53;;
21800;SDS011;11062;51.164;16.924;2023-04-25T05:54:17;282.15;;;92.00;;
21800;SDS011;11062;51.164;16.924;2023-04-25T05:56:43;272.60;;;91.85;;
21800;SDS011;11062;51.164;16.924;2023-04-25T05:59:09;269.90;;;90.63;;
21800;SDS011;11062;51.164;16.924;2023-04-25T06:01:35;286.80;;;93.35;;
21800;SDS011;11062;51.164;16.924;2023-04-25T06:04:03;270.33;;;92.53;;
21800;SDS011;11062;51.164;16.924;2023-04-25T06:06:31;265.98;;;90.70;;
21800;SDS011;11062;51.164;16.924;2023-04-25T06:08:57;272.50;;;92.07;;
21800;SDS011;11062;51.164;16.924;2023-04-25T06:11:23;276.27;;;92.95;;
21800;SDS011;11062;51.164;16.924;2023-04-25T06:13:55;267.38;;;89.35;;
21800;SDS011;11062;51.164;16.924;2023-04-25T06:16:21;286.65;;;94.15;;
21800;SDS011;11062;51.164;16.924;2023-04-25T06:18:47;274.75;;;90.75;;
21800;SDS011;11062;51.164;16.924;2023-04-25T06:21:22;276.25;;;93.57;;
21800;SDS011;11062;51.164;16.924;2023-04-25T06:23:54;273.75;;;92.45;;
21800;SDS011;11062;51.164;16.924;2023-04-25T06:26:29;276.80;;;92.03;;
21800;SDS011;11062;51.164;16.924;2023-04-25T06:28:57;282.23;;;95.22;;
21800;SDS011;11062;51.164;16.924;2023-04-25T06:31:25;283.35;;;96.40;;
21800;SDS011;11062;51.164;16.924;2023-04-25T06:33:52;271.27;;;91.30;;
21800;SDS011;11062;51.164;16.924;2023-04-25T06:36:20;289.02;;;94.32;;
21800;SDS011;11062;51.164;16.924;2023-04-25T06:38:56;280.90;;;93.70;;
21800;SDS011;11062;51.164;16.924;2023-04-25T06:41:22;284.33;;;95.07;;
21800;SDS011;11062;51.164;16.924;2023-04-25T06:43:50;283.00;;;92.50;;
21800;SDS011;11062;51.164;16.924;2023-04-25T06:46:16;266.52;;;91.63;;
21800;SDS011;11062;51.164;16.924;2023-04-25T06:48:45;283.88;;;94.05;;
21800;SDS011;11062;51.164;16.924;2023-04-25T06:51:14;281.45;;;93.10;;
21800;SDS011;11062;51.164;16.924;2023-04-25T06:53:42;280.80;;;93.13;;
21800;SDS011;11062;51.164;16.924;2023-04-25T06:56:08;280.70;;;93.03;;
21800;SDS011;11062;51.164;16.924;2023-04-25T06:58:37;277.38;;;92.30;;
21800;SDS011;11062;51.164;16.924;2023-04-25T07:01:03;274.25;;;93.95;;
21800;SDS011;11062;51.164;16.924;2023-04-25T07:03:34;299.38;;;94.40;;
21800;SDS011;11062;51.164;16.924;2023-04-25T07:06:02;275.13;;;90.43;;
21800;SDS011;11062;51.164;16.924;2023-04-25T07:08:34;269.42;;;92.07;;
21800;SDS011;11062;51.164;16.924;2023-04-25T07:11:00;275.92;;;93.68;;
21800;SDS011;11062;51.164;16.924;2023-04-25T07:13:26;270.95;;;92.18;;
21800;SDS011;11062;51.164;16.924;2023-04-25T07:15:52;275.15;;;88.70;;
21800;SDS011;11062;51.164;16.924;2023-04-25T07:18:18;271.02;;;89.95;;
21800;SDS011;11062;51.164;16.924;2023-04-25T07:20:47;269.17;;;89.57;;
21800;SDS011;11062;51.164;16.924;2023-04-25T07:23:13;262.00;;;86.50;;
21800;SDS011;11062;51.164;16.924;2023-04-25T07:25:39;271.77;;;88.63;;
21800;SDS011;11062;51.164;16.924;2023-04-25T07:28:14;268.38;;;91.25;;
21800;SDS011;11062;51.164;16.924;2023-04-25T07:30:40;278.77;;;91.72;;
21800;SDS011;11062;51.164;16.924;2023-04-25T07:33:06;270.85;;;90.95;;
21800;SDS011;11062;51.164;16.924;2023-04-25T07:35:32;276.27;;;92.10;;
21800;SDS011;11062;51.164;16.924;2023-04-25T07:37:57;281.83;;;93.85;;
21800;SDS011;11062;51.164;16.924;2023-04-25T07:40:27;264.38;;;89.00;;
21800;SDS011;11062;51.164;16.924;2023-04-25T07:42:53;267.48;;;89.65;;
21800;SDS011;11062;51.164;16.924;2023-04-25T07:45:19;285.10;;;92.68;;
21800;SDS011;11062;51.164;16.924;2023-04-25T07:47:45;275.85;;;94.57;;
21800;SDS011;11062;51.164;16.924;2023-04-25T07:53:26;279.48;;;100.10;;
21800;SDS011;11062;51.164;16.924;2023-04-25T07:56:14;276.45;;;98.97;;
21800;SDS011;11062;51.164;16.924;2023-04-25T07:58:49;281.67;;;96.63;;
21800;SDS011;11062;51.164;16.924;2023-04-25T08:01:17;281.80;;;93.55;;
21800;SDS011;11062;51.164;16.924;2023-04-25T08:03:45;284.95;;;96.85;;
21800;SDS011;11062;51.164;16.924;2023-04-25T08:06:14;274.73;;;95.65;;
21800;SDS011;11062;51.164;16.924;2023-04-25T08:08:40;300.10;;;100.40;;
21800;SDS011;11062;51.164;16.924;2023-04-25T08:11:09;279.80;;;95.47;;
21800;SDS011;11062;51.164;16.924;2023-04-25T08:13:35;286.23;;;93.18;;
21800;SDS011;11062;51.164;16.924;2023-04-25T08:16:02;277.83;;;91.95;;
21800;SDS011;11062;51.164;16.924;2023-04-25T08:18:33;272.33;;;93.28;;
21800;SDS011;11062;51.164;16.924;2023-04-25T08:20:59;267.02;;;90.75;;
21800;SDS011;11062;51.164;16.924;2023-04-25T08:23:28;281.73;;;99.20;;
21800;SDS011;11062;51.164;16.924;2023-04-25T08:25:54;275.83;;;94.40;;
21800;SDS011;11062;51.164;16.924;2023-04-25T08:28:22;274.02;;;94.22;;
21800;SDS011;11062;51.164;16.924;2023-04-25T08:30:49;272.55;;;94.32;;
21800;SDS011;11062;51.164;16.924;2023-04-25T08:33:15;279.77;;;96.57;;
21800;SDS011;11062;51.164;16.924;2023-04-25T08:35:41;276.13;;;91.25;;
21800;SDS011;11062;51.164;16.924;2023-04-25T08:38:07;278.08;;;91.85;;
21800;SDS011;11062;51.164;16.924;2023-04-25T08:40:35;284.27;;;94.90;;
21800;SDS011;11062;51.164;16.924;2023-04-25T08:43:05;278.98;;;95.45;;
21800;SDS011;11062;51.164;16.924;2023-04-25T08:45:39;286.17;;;95.57;;
21800;SDS011;11062;51.164;16.924;2023-04-25T08:51:03;283.13;;;96.30;;
21800;SDS011;11062;51.164;16.924;2023-04-25T08:53:35;277.58;;;95.72;;
21800;SDS011;11062;51.164;16.924;2023-04-25T08:56:01;282.92;;;95.93;;
21800;SDS011;11062;51.164;16.924;2023-04-25T08:58:33;284.48;;;96.75;;
21800;SDS011;11062;51.164;16.924;2023-04-25T09:01:03;278.67;;;96.22;;
21800;SDS011;11062;51.164;16.924;2023-04-25T09:03:40;291.10;;;98.00;;
21800;SDS011;11062;51.164;16.924;2023-04-25T09:06:07;293.45;;;98.78;;
21800;SDS011;11062;51.164;16.924;2023-04-25T09:08:37;278.67;;;95.10;;
21800;SDS011;11062;51.164;16.924;2023-04-25T09:11:06;277.13;;;97.80;;
21800;SDS011;11062;51.164;16.924;2023-04-25T09:13:32;277.48;;;97.05;;
21800;SDS011;11062;51.164;16.924;2023-04-25T09:16:00;293.10;;;101.28;;
21800;SDS011;11062;51.164;16.924;2023-04-25T09:18:30;279.33;;;93.53;;
21800;SDS011;11062;51.164;16.924;2023-04-25T09:21:04;272.88;;;94.22;;
21800;SDS011;11062;51.164;16.924;2023-04-25T09:23:54;279.60;;;92.70;;
21800;SDS011;11062;51.164;16.924;2023-04-25T09:26:21;285.05;;;93.47;;
21800;SDS011;11062;51.164;16.924;2023-04-25T09:28:49;272.80;;;96.05;;
21800;SDS011;11062;51.164;16.924;2023-04-25T09:31:32;267.17;;;92.95;;
21800;SDS011;11062;51.164;16.924;2023-04-25T09:34:02;269.27;;;94.78;;
21800;SDS011;11062;51.164;16.924;2023-04-25T09:36:31;288.90;;;95.50;;
21800;SDS011;11062;51.164;16.924;2023-04-25T09:39:02;283.02;;;95.15;;
21800;SDS011;11062;51.164;16.924;2023-04-25T09:41:53;282.75;;;96.95;;
21800;SDS011;11062;51.164;16.924;2023-04-25T09:44:27;285.25;;;94.53;;
21800;SDS011;11062;51.164;16.924;2023-04-25T09:46:56;275.52;;;93.60;;
21800;SDS011;11062;51.164;16.924;2023-04-25T09:49:25;286.52;;;98.80;;
21800;SDS011;11062;51.164;16.924;2023-04-25T09:51:58;281.77;;;98.00;;
21800;SDS011;11062;51.164;16.924;2023-04-25T09:54:25;274.30;;;96.68;;
21800;SDS011;11062;51.164;16.924;2023-04-25T09:56:52;280.42;;;100.28;;
21800;SDS011;11062;51.164;16.924;2023-04-25T09:59:22;284.02;;;97.70;;
21800;SDS011;11062;51.164;16.924;2023-04-25T10:01:48;288.83;;;100.25;;
21800;SDS011;11062;51.164;16.924;2023-04-25T10:04:24;281.83;;;100.90;;
21800;SDS011;11062;51.164;16.924;2023-04-25T10:06:56;281.90;;;98.22;;
21800;SDS011;11062;51.164;16.924;2023-04-25T10:09:24;275.60;;;97.15;;
21800;SDS011;11062;51.164;16.924;2023-04-25T10:11:53;285.50;;;99.82;;
21800;SDS011;11062;51.164;16.924;2023-04-25T10:14:23;290.60;;;98.72;;
21800;SDS011;11062;51.164;16.924;2023-04-25T10:16:50;277.92;;;98.63;;
21800;SDS011;11062;51.164;16.924;2023-04-25T10:19:25;282.25;;;97.03;;
21800;SDS011;11062;51.164;16.924;2023-04-25T10:21:54;285.98;;;99.25;;
21800;SDS011;11062;51.164;16.924;2023-04-25T10:24:27;281.73;;;99.22;;
21800;SDS011;11062;51.164;16.924;2023-04-25T10:26:53;289.08;;;100.22;;
21800;SDS011;11062;51.164;16.924;2023-04-25T10:29:21;303.67;;;99.72;;
21800;SDS011;11062;51.164;16.924;2023-04-25T10:31:50;290.35;;;98.90;;
21800;SDS011;11062;51.164;16.924;2023-04-25T10:34:23;297.88;;;100.47;;
21800;SDS011;11062;51.164;16.924;2023-04-25T10:37:13;290.50;;;98.47;;
21800;SDS011;11062;51.164;16.924;2023-04-25T10:39:41;284.52;;;97.80;;
21800;SDS011;11062;51.164;16.924;2023-04-25T10:42:14;279.52;;;98.43;;
21800;SDS011;11062;51.164;16.924;2023-04-25T10:44:47;289.88;;;99.25;;
21800;SDS011;11062;51.164;16.924;2023-04-25T10:47:34;285.42;;;98.80;;
21800;SDS011;11062;51.164;16.924;2023-04-25T10:50:05;285.92;;;98.50;;
21800;SDS011;11062;51.164;16.924;2023-04-25T10:52:38;290.40;;;100.28;;
21800;SDS011;11062;51.164;16.924;2023-04-25T10:55:08;288.83;;;100.20;;
21800;SDS011;11062;51.164;16.924;2023-04-25T10:57:45;288.58;;;101.10;;
21800;SDS011;11062;51.164;16.924;2023-04-25T11:00:22;288.02;;;99.00;;
21800;SDS011;11062;51.164;16.924;2023-04-25T11:03:01;283.40;;;99.57;;
21800;SDS011;11062;51.164;16.924;2023-04-25T11:05:30;282.38;;;98.13;;
21800;SDS011;11062;51.164;16.924;2023-04-25T11:07:58;292.20;;;98.63;;
21800;SDS011;11062;51.164;16.924;2023-04-25T11:10:28;297.83;;;101.18;;
21800;SDS011;11062;51.164;16.924;2023-04-25T11:13:00;287.52;;;99.00;;
21800;SDS011;11062;51.164;16.924;2023-04-25T11:15:27;282.45;;;98.80;;
21800;SDS011;11062;51.164;16.924;2023-04-25T11:18:05;293.55;;;100.50;;
21800;SDS011;11062;51.164;16.924;2023-04-25T11:20:33;296.80;;;101.50;;
21800;SDS011;11062;51.164;16.924;2023-04-25T11:22:59;286.10;;;96.47;;
21800;SDS011;11062;51.164;16.924;2023-04-25T11:25:29;286.77;;;96.47;;
21800;SDS011;11062;51.164;16.924;2023-04-25T11:27:56;278.38;;;96.75;;
21800;SDS011;11062;51.164;16.924;2023-04-25T11:30:26;284.15;;;97.15;;
21800;SDS011;11062;51.164;16.924;2023-04-25T11:32:56;287.58;;;97.05;;
21800;SDS011;11062;51.164;16.924;2023-04-25T11:35:22;295.70;;;97.50;;
21800;SDS011;11062;51.164;16.924;2023-04-25T11:37:50;304.73;;;100.63;;
21800;SDS011;11062;51.164;16.924;2023-04-25T11:40:16;283.83;;;98.00;;
21800;SDS011;11062;51.164;16.924;2023-04-25T11:42:46;285.42;;;98.28;;
21800;SDS011;11062;51.164;16.924;2023-04-25T11:45:18;273.20;;;94.13;;
21800;SDS011;11062;51.164;16.924;2023-04-25T11:47:46;276.27;;;97.05;;
21800;SDS011;11062;51.164;16.924;2023-04-25T11:50:13;290.95;;;98.53;;
21800;SDS011;11062;51.164;16.924;2023-04-25T11:52:40;299.88;;;101.28;;
21800;SDS011;11062;51.164;16.924;2023-04-25T11:55:08;286.05;;;98.43;;
21800;SDS011;11062;51.164;16.924;2023-04-25T11:57:38;285.85;;;98.55;;
21800;SDS011;11062;51.164;16.924;2023-04-25T12:00:09;287.33;;;99.22;;
21800;SDS011;11062;51.164;16.924;2023-04-25T12:02:46;302.65;;;100.07;;
21800;SDS011;11062;51.164;16.924;2023-04-25T12:05:16;285.23;;;98.97;;
21800;SDS011;11062;51.164;16.924;2023-04-25T12:07:42;285.98;;;98.20;;
21800;SDS011;11062;51.164;16.924;2023-04-25T12:10:09;287.75;;;98.10;;
21800;SDS011;11062;51.164;16.924;2023-04-25T12:12:36;278.80;;;95.78;;
21800;SDS011;11062;51.164;16.924;2023-04-25T12:15:24;281.25;;;97.20;;
21800;SDS011;11062;51.164;16.924;2023-04-25T12:17:54;298.70;;;98.43;;
21800;SDS011;11062;51.164;16.924;2023-04-25T12:20:31;279.70;;;95.78;;
21800;SDS011;11062;51.164;16.924;2023-04-25T12:22:57;296.27;;;98.45;;
21800;SDS011;11062;51.164;16.924;2023-04-25T12:25:43;286.13;;;97.07;;
21800;SDS011;11062;51.164;16.924;2023-04-25T12:31:06;278.70;;;95.95;;
21800;SDS011;11062;51.164;16.924;2023-04-25T12:33:36;283.98;;;97.07;;
21800;SDS011;11062;51.164;16.924;2023-04-25T12:36:04;305.08;;;100.78;;
21800;SDS011;11062;51.164;16.924;2023-04-25T12:38:39;280.73;;;98.13;;
21800;SDS011;11062;51.164;16.924;2023-04-25T12:41:07;275.20;;;95.40;;
21800;SDS011;11062;51.164;16.924;2023-04-25T12:43:36;296.98;;;98.32;;
21800;SDS011;11062;51.164;16.924;2023-04-25T12:46:05;271.90;;;95.50;;
21800;SDS011;11062;51.164;16.924;2023-04-25T12:48:31;270.00;;;94.07;;
21800;SDS011;11062;51.164;16.924;2023-04-25T12:50:57;278.30;;;95.07;;
21800;SDS011;11062;51.164;16.924;2023-04-25T12:53:25;276.48;;;97.20;;
21800;SDS011;11062;51.164;16.924;2023-04-25T12:55:51;271.63;;;96.05;;
21800;SDS011;11062;51.164;16.924;2023-04-25T12:58:21;269.40;;;94.90;;
21800;SDS011;11062;51.164;16.924;2023-04-25T13:00:47;271.58;;;94.65;;
21800;SDS011;11062;51.164;16.924;2023-04-25T13:03:15;295.77;;;97.78;;
21800;SDS011;11062;51.164;16.924;2023-04-25T13:05:59;283.20;;;97.45;;
21800;SDS011;11062;51.164;16.924;2023-04-25T13:08:29;287.05;;;98.35;;
21800;SDS011;11062;51.164;16.924;2023-04-25T13:10:58;282.65;;;99.57;;
21800;SDS011;11062;51.164;16.924;2023-04-25T13:13:27;292.17;;;101.35;;
21800;SDS011;11062;51.164;16.924;2023-04-25T13:15:53;292.92;;;102.13;;
21800;SDS011;11062;51.164;16.924;2023-04-25T13:18:19;283.33;;;101.00;;
21800;SDS011;11062;51.164;16.924;2023-04-25T13:20:52;279.30;;;98.90;;
21800;SDS011;11062;51.164;16.924;2023-04-25T13:23:18;286.83;;;101.90;;
21800;SDS011;11062;51.164;16.924;2023-04-25T13:25:47;288.95;;;103.28;;
21800;SDS011;11062;51.164;16.924;2023-04-25T13:28:14;315.98;;;105.18;;
21800;SDS011;11062;51.164;16.924;2023-04-25T13:30:40;290.33;;;100.82;;
21800;SDS011;11062;51.164;16.924;2023-04-25T13:33:06;285.77;;;99.70;;
21800;SDS011;11062;51.164;16.924;2023-04-25T13:35:35;279.55;;;99.38;;
21800;SDS011;11062;51.164;16.924;2023-04-25T13:38:01;288.73;;;97.50;;
21800;SDS011;11062;51.164;16.924;2023-04-25T13:40:28;294.60;;;97.35;;
21800;SDS011;11062;51.164;16.924;2023-04-25T13:43:03;285.27;;;97.25;;
21800;SDS011;11062;51.164;16.924;2023-04-25T13:45:31;284.95;;;98.28;;
21800;SDS011;11062;51.164;16.924;2023-04-25T13:47:57;277.30;;;94.78;;
21800;SDS011;11062;51.164;16.924;2023-04-25T13:50:23;267.20;;;96.40;;
21800;SDS011;11062;51.164;16.924;2023-04-25T13:52:50;277.98;;;97.65;;
21800;SDS011;11062;51.164;16.924;2023-04-25T13:55:16;283.45;;;97.40;;
21800;SDS011;11062;51.164;16.924;2023-04-25T13:57:48;270.70;;;94.80;;
21800;SDS011;11062;51.164;16.924;2023-04-25T14:00:26;269.35;;;94.35;;
21800;SDS011;11062;51.164;16.924;2023-04-25T14:02:57;275.08;;;95.15;;
21800;SDS011;11062;51.164;16.924;2023-04-25T14:05:23;270.20;;;94.55;;
21800;SDS011;11062;51.164;16.924;2023-04-25T14:07:52;283.60;;;95.95;;
21800;SDS011;11062;51.164;16.924;2023-04-25T14:10:21;274.15;;;94.40;;
21800;SDS011;11062;51.164;16.924;2023-04-25T14:12:47;274.30;;;94.97;;